Airfield :
LOGIN :

Register | Disclaimer

   EN    FR    IT 

 










Legend :    VFR   Marginal VFR   IFR   Intensive IFR   Very Intensive IFR
Visi :
Ceiling :
>= 8 km
>= 3000ft
5 to 8 km
1000 to 3000 ft
1500m to 5 km
500 to 1000 ft
800 to 1500m
200 to 500 ft
< 800m
< 200 ft
Symbols :   Thunderstorms  Fog  Heavy snow  Heavy precipitations  Wind > 20 kt
SIGMETs :     Misc.  Thunderstorms  Icing  Turbulence  Mountain Waves  Volcanic Ashes






- Airport Elevation : 876 ft
- IATA code : MBX


LJMB - Maribor

CURRENT METAR :
  • 280300Z AUTO VRB01KT 7000 OVC025/// M01/M02 Q1023

EXPIRED METARs :
  • 280230Z AUTO 00000KT 6000 OVC033/// M02/M02 Q1023
  • 280200Z AUTO 13001KT 7000 BKN032/// M02/M03 Q1023
  • 272200Z AUTO 00000KT 6000 NCD M01/M02 Q1025
  • 280130Z AUTO 00000KT 7000 FEW005/// BKN030/// M02/M03 Q1024
  • 272230Z AUTO 36001KT 6000 R32/1900N NCD M02/M03 Q1025

TAF TAF LJMB
Valid from the 28 at 00:00 until the 29 at 00:00 UTC


272300Z 2800/2900 VRB02KT 6000 NSC
PROB40 2802/2808 0300 FZFG VV001



MET'MAP, your aeronautical weather chart ! - Copyright ORBIFLY December 2007 - Disclaimer

ORBIFLY MET'MAP TEAM :

Programming & Development : Alexandra Zaïnal
Original concept : Baudouin d'Aumeries
Technical & hardware support : Manuel Goepfert
Assistance : Marc-Olivier Méhu




SOURCES & CREDITS :

   NOAA